sensor_id;sensor_type;location;lat;lon;timestamp;pressure;altitude;pressure_sealevel;temperature;humidity
70133;BME280;57495;49.922;7.966;2023-05-24T00:01:38;100487.94;;;11.17;79.09
70133;BME280;57495;49.922;7.966;2023-05-24T00:03:41;100474.09;;;11.12;79.07
70133;BME280;57495;49.922;7.966;2023-05-24T00:05:45;100476.63;;;11.03;78.94
70133;BME280;57495;49.922;7.966;2023-05-24T00:07:47;100475.78;;;11.03;78.92
70133;BME280;57495;49.922;7.966;2023-05-24T00:09:48;100478.25;;;10.95;78.82
70133;BME280;57495;49.922;7.966;2023-05-24T00:11:50;100470.50;;;10.92;79.17
70133;BME280;57495;49.922;7.966;2023-05-24T00:13:52;100471.06;;;10.95;79.02
70133;BME280;57495;49.922;7.966;2023-05-24T00:15:55;100469.25;;;10.96;78.90
70133;BME280;57495;49.922;7.966;2023-05-24T00:17:56;100463.84;;;10.86;79.13
70133;BME280;57495;49.922;7.966;2023-05-24T00:19:57;100465.56;;;10.87;79.08
70133;BME280;57495;49.922;7.966;2023-05-24T00:21:59;100471.28;;;10.82;78.77
70133;BME280;57495;49.922;7.966;2023-05-24T00:24:00;100462.69;;;10.79;78.71
70133;BME280;57495;49.922;7.966;2023-05-24T00:26:02;100472.25;;;10.72;78.88
70133;BME280;57495;49.922;7.966;2023-05-24T00:28:03;100472.03;;;10.63;79.39
70133;BME280;57495;49.922;7.966;2023-05-24T00:30:06;100463.78;;;10.67;78.79
70133;BME280;57495;49.922;7.966;2023-05-24T00:32:09;100471.66;;;10.68;78.81
70133;BME280;57495;49.922;7.966;2023-05-24T00:34:10;100468.84;;;10.70;78.62
70133;BME280;57495;49.922;7.966;2023-05-24T00:36:12;100463.19;;;10.63;78.88
70133;BME280;57495;49.922;7.966;2023-05-24T00:38:13;100468.19;;;10.56;78.81
70133;BME280;57495;49.922;7.966;2023-05-24T00:40:15;100474.09;;;10.50;79.15
70133;BME280;57495;49.922;7.966;2023-05-24T00:42:16;100462.84;;;10.56;78.69
70133;BME280;57495;49.922;7.966;2023-05-24T00:44:18;100473.84;;;10.53;78.57
70133;BME280;57495;49.922;7.966;2023-05-24T00:46:21;100473.25;;;10.50;78.88
70133;BME280;57495;49.922;7.966;2023-05-24T00:48:26;100478.72;;;10.48;78.80
70133;BME280;57495;49.922;7.966;2023-05-24T00:50:28;100482.34;;;10.47;78.75
70133;BME280;57495;49.922;7.966;2023-05-24T00:52:29;100482.63;;;10.44;78.88
70133;BME280;57495;49.922;7.966;2023-05-24T00:54:31;100488.41;;;10.49;78.78
70133;BME280;57495;49.922;7.966;2023-05-24T00:56:33;100484.84;;;10.39;79.14
70133;BME280;57495;49.922;7.966;2023-05-24T00:58:34;100486.34;;;10.32;79.26
70133;BME280;57495;49.922;7.966;2023-05-24T01:00:36;100487.31;;;10.31;79.54
70133;BME280;57495;49.922;7.966;2023-05-24T01:02:38;100492.53;;;10.32;79.20
70133;BME280;57495;49.922;7.966;2023-05-24T01:04:40;100490.56;;;10.34;79.46
70133;BME280;57495;49.922;7.966;2023-05-24T01:06:53;100490.84;;;10.31;78.92
70133;BME280;57495;49.922;7.966;2023-05-24T01:09:06;100484.28;;;10.24;79.44
70133;BME280;57495;49.922;7.966;2023-05-24T01:11:16;100489.34;;;10.27;79.09
70133;BME280;57495;49.922;7.966;2023-05-24T01:13:26;100491.91;;;10.29;78.80
70133;BME280;57495;49.922;7.966;2023-05-24T01:15:39;100486.56;;;10.29;78.20
70133;BME280;57495;49.922;7.966;2023-05-24T01:17:46;100487.78;;;10.24;78.97
70133;BME280;57495;49.922;7.966;2023-05-24T01:19:56;100493.13;;;10.24;78.50
70133;BME280;57495;49.922;7.966;2023-05-24T01:22:09;100488.78;;;10.23;78.98
70133;BME280;57495;49.922;7.966;2023-05-24T01:24:21;100487.31;;;10.19;78.53
70133;BME280;57495;49.922;7.966;2023-05-24T01:26:32;100489.50;;;10.25;78.45
70133;BME280;57495;49.922;7.966;2023-05-24T01:28:38;100485.13;;;10.24;78.78
70133;BME280;57495;49.922;7.966;2023-05-24T01:30:39;100481.34;;;10.27;78.61
70133;BME280;57495;49.922;7.966;2023-05-24T01:32:42;100477.47;;;10.31;78.34
70133;BME280;57495;49.922;7.966;2023-05-24T01:34:43;100482.84;;;10.20;78.57
70133;BME280;57495;49.922;7.966;2023-05-24T01:36:44;100473.38;;;10.16;78.77
70133;BME280;57495;49.922;7.966;2023-05-24T01:38:47;100487.59;;;10.16;78.86
70133;BME280;57495;49.922;7.966;2023-05-24T01:40:51;100478.22;;;10.22;78.60
70133;BME280;57495;49.922;7.966;2023-05-24T01:43:02;100481.75;;;10.22;78.19
70133;BME280;57495;49.922;7.966;2023-05-24T01:45:13;100483.44;;;10.23;78.47
70133;BME280;57495;49.922;7.966;2023-05-24T01:47:24;100479.19;;;10.21;78.37
70133;BME280;57495;49.922;7.966;2023-05-24T01:49:32;100471.56;;;10.16;78.72
70133;BME280;57495;49.922;7.966;2023-05-24T01:51:38;100478.88;;;10.14;78.61
70133;BME280;57495;49.922;7.966;2023-05-24T01:53:45;100482.75;;;10.10;78.80
70133;BME280;57495;49.922;7.966;2023-05-24T01:55:47;100489.56;;;10.14;78.53
70133;BME280;57495;49.922;7.966;2023-05-24T01:57:53;100489.09;;;10.09;78.99
70133;BME280;57495;49.922;7.966;2023-05-24T01:59:59;100483.19;;;9.94;78.96
70133;BME280;57495;49.922;7.966;2023-05-24T02:02:04;100485.75;;;9.96;79.15
70133;BME280;57495;49.922;7.966;2023-05-24T02:04:05;100482.31;;;9.94;79.53
70133;BME280;57495;49.922;7.966;2023-05-24T02:06:07;100481.72;;;9.90;79.37
70133;BME280;57495;49.922;7.966;2023-05-24T02:08:09;100482.78;;;9.78;79.98
70133;BME280;57495;49.922;7.966;2023-05-24T02:10:12;100482.09;;;9.64;80.27
70133;BME280;57495;49.922;7.966;2023-05-24T02:12:13;100478.38;;;9.77;80.19
70133;BME280;57495;49.922;7.966;2023-05-24T02:14:14;100483.84;;;9.75;80.80
70133;BME280;57495;49.922;7.966;2023-05-24T02:16:19;100482.69;;;9.68;80.63
70133;BME280;57495;49.922;7.966;2023-05-24T02:18:24;100489.19;;;9.75;80.82
70133;BME280;57495;49.922;7.966;2023-05-24T02:20:26;100479.97;;;9.79;80.77
70133;BME280;57495;49.922;7.966;2023-05-24T02:22:30;100483.84;;;9.75;80.85
70133;BME280;57495;49.922;7.966;2023-05-24T02:24:31;100478.34;;;9.88;80.43
70133;BME280;57495;49.922;7.966;2023-05-24T02:26:32;100481.00;;;9.88;80.72
70133;BME280;57495;49.922;7.966;2023-05-24T02:28:34;100483.09;;;9.84;80.72
70133;BME280;57495;49.922;7.966;2023-05-24T02:30:35;100489.44;;;9.83;80.62
70133;BME280;57495;49.922;7.966;2023-05-24T02:32:37;100488.53;;;9.94;80.30
70133;BME280;57495;49.922;7.966;2023-05-24T02:34:40;100487.06;;;10.01;80.52
70133;BME280;57495;49.922;7.966;2023-05-24T02:36:41;100476.03;;;9.95;80.80
70133;BME280;57495;49.922;7.966;2023-05-24T02:38:44;100491.34;;;9.93;80.64
70133;BME280;57495;49.922;7.966;2023-05-24T02:40:46;100488.91;;;9.90;80.51
70133;BME280;57495;49.922;7.966;2023-05-24T02:42:48;100481.88;;;9.89;80.67
70133;BME280;57495;49.922;7.966;2023-05-24T02:44:49;100482.56;;;10.02;79.97
70133;BME280;57495;49.922;7.966;2023-05-24T02:46:51;100484.63;;;9.98;79.96
70133;BME280;57495;49.922;7.966;2023-05-24T02:48:53;100479.41;;;9.97;79.96
70133;BME280;57495;49.922;7.966;2023-05-24T02:50:56;100483.31;;;9.93;80.32
70133;BME280;57495;49.922;7.966;2023-05-24T02:52:57;100476.88;;;9.95;80.09
70133;BME280;57495;49.922;7.966;2023-05-24T02:54:59;100476.38;;;9.90;80.27
70133;BME280;57495;49.922;7.966;2023-05-24T02:57:00;100486.72;;;9.95;80.17
70133;BME280;57495;49.922;7.966;2023-05-24T02:59:02;100480.91;;;9.90;80.08
70133;BME280;57495;49.922;7.966;2023-05-24T03:01:04;100476.38;;;9.90;79.98
70133;BME280;57495;49.922;7.966;2023-05-24T03:03:05;100491.59;;;9.90;79.69
70133;BME280;57495;49.922;7.966;2023-05-24T03:05:07;100482.81;;;9.66;80.40
70133;BME280;57495;49.922;7.966;2023-05-24T03:07:10;100476.75;;;9.64;80.59
70133;BME280;57495;49.922;7.966;2023-05-24T03:09:11;100471.25;;;9.66;80.57
70133;BME280;57495;49.922;7.966;2023-05-24T03:11:12;100480.84;;;9.68;80.41
70133;BME280;57495;49.922;7.966;2023-05-24T03:13:14;100475.63;;;9.67;80.32
70133;BME280;57495;49.922;7.966;2023-05-24T03:15:16;100480.00;;;9.57;80.61
70133;BME280;57495;49.922;7.966;2023-05-24T03:17:17;100474.09;;;9.53;80.55
70133;BME280;57495;49.922;7.966;2023-05-24T03:19:19;100484.06;;;9.40;81.26
70133;BME280;57495;49.922;7.966;2023-05-24T03:21:21;100472.31;;;9.42;80.98
70133;BME280;57495;49.922;7.966;2023-05-24T03:23:23;100481.50;;;9.38;80.91
70133;BME280;57495;49.922;7.966;2023-05-24T03:25:25;100493.16;;;9.48;80.62
70133;BME280;57495;49.922;7.966;2023-05-24T03:27:27;100484.31;;;9.48;80.34
70133;BME280;57495;49.922;7.966;2023-05-24T03:29:28;100493.88;;;9.39;80.91
70133;BME280;57495;49.922;7.966;2023-05-24T03:31:30;100489.06;;;9.33;81.17
70133;BME280;57495;49.922;7.966;2023-05-24T03:33:31;100486.50;;;9.32;81.08
70133;BME280;57495;49.922;7.966;2023-05-24T03:35:33;100488.06;;;9.34;81.77
70133;BME280;57495;49.922;7.966;2023-05-24T03:37:34;100489.16;;;9.43;81.34
70133;BME280;57495;49.922;7.966;2023-05-24T03:39:37;100490.00;;;9.43;81.54
70133;BME280;57495;49.922;7.966;2023-05-24T03:41:38;100490.00;;;9.43;81.69
70133;BME280;57495;49.922;7.966;2023-05-24T03:43:40;100492.69;;;9.32;82.02
70133;BME280;57495;49.922;7.966;2023-05-24T03:45:41;100486.09;;;9.47;81.62
70133;BME280;57495;49.922;7.966;2023-05-24T03:47:43;100489.25;;;9.53;81.16
70133;BME280;57495;49.922;7.966;2023-05-24T03:49:44;100496.94;;;9.46;81.49
70133;BME280;57495;49.922;7.966;2023-05-24T03:51:45;100496.06;;;9.34;82.00
70133;BME280;57495;49.922;7.966;2023-05-24T03:53:47;100504.59;;;9.17;82.37
70133;BME280;57495;49.922;7.966;2023-05-24T03:55:50;100501.41;;;9.34;81.63
70133;BME280;57495;49.922;7.966;2023-05-24T03:57:51;100513.31;;;9.30;81.92
70133;BME280;57495;49.922;7.966;2023-05-24T03:59:52;100508.47;;;9.13;82.89
70133;BME280;57495;49.922;7.966;2023-05-24T04:01:54;100508.59;;;9.22;82.40
70133;BME280;57495;49.922;7.966;2023-05-24T04:03:55;100506.53;;;9.15;82.26
70133;BME280;57495;49.922;7.966;2023-05-24T04:05:57;100513.81;;;9.13;82.90
70133;BME280;57495;49.922;7.966;2023-05-24T04:07:58;100512.59;;;9.28;81.83
70133;BME280;57495;49.922;7.966;2023-05-24T04:10:00;100513.09;;;9.22;81.70
70133;BME280;57495;49.922;7.966;2023-05-24T04:12:03;100508.94;;;9.06;82.33
70133;BME280;57495;49.922;7.966;2023-05-24T04:14:05;100508.31;;;8.92;83.23
70133;BME280;57495;49.922;7.966;2023-05-24T04:16:06;100511.59;;;8.95;83.33
70133;BME280;57495;49.922;7.966;2023-05-24T04:18:08;100512.22;;;8.99;83.01
70133;BME280;57495;49.922;7.966;2023-05-24T04:20:11;100515.00;;;8.97;83.06
70133;BME280;57495;49.922;7.966;2023-05-24T04:22:12;100516.47;;;9.01;83.20
70133;BME280;57495;49.922;7.966;2023-05-24T04:24:14;100518.38;;;8.99;83.58
70133;BME280;57495;49.922;7.966;2023-05-24T04:26:15;100516.47;;;9.01;83.42
70133;BME280;57495;49.922;7.966;2023-05-24T04:28:18;100507.72;;;8.99;83.02
70133;BME280;57495;49.922;7.966;2023-05-24T04:30:21;100511.38;;;9.09;83.39
70133;BME280;57495;49.922;7.966;2023-05-24T04:32:23;100508.94;;;9.06;83.23
70133;BME280;57495;49.922;7.966;2023-05-24T04:34:27;100502.16;;;9.14;83.11
70133;BME280;57495;49.922;7.966;2023-05-24T04:36:32;100500.72;;;9.09;83.34
70133;BME280;57495;49.922;7.966;2023-05-24T04:38:35;100510.28;;;9.23;82.88
70133;BME280;57495;49.922;7.966;2023-05-24T04:40:37;100506.50;;;9.37;82.79
70133;BME280;57495;49.922;7.966;2023-05-24T04:42:39;100496.44;;;9.41;83.54
70133;BME280;57495;49.922;7.966;2023-05-24T04:44:42;100495.59;;;9.29;82.51
70133;BME280;57495;49.922;7.966;2023-05-24T04:46:44;100501.19;;;9.37;82.53
70133;BME280;57495;49.922;7.966;2023-05-24T04:48:45;100505.41;;;9.40;82.29
70133;BME280;57495;49.922;7.966;2023-05-24T04:50:47;100508.94;;;9.52;81.90
70133;BME280;57495;49.922;7.966;2023-05-24T04:52:48;100515.47;;;9.59;82.08
70133;BME280;57495;49.922;7.966;2023-05-24T04:54:50;100520.53;;;9.62;82.68
70133;BME280;57495;49.922;7.966;2023-05-24T04:56:52;100517.88;;;9.62;83.09
70133;BME280;57495;49.922;7.966;2023-05-24T04:58:53;100521.88;;;9.67;82.72
70133;BME280;57495;49.922;7.966;2023-05-24T05:00:56;100513.84;;;9.67;82.39
70133;BME280;57495;49.922;7.966;2023-05-24T05:02:57;100519.09;;;9.58;82.68
70133;BME280;57495;49.922;7.966;2023-05-24T05:04:59;100524.59;;;9.34;83.67
70133;BME280;57495;49.922;7.966;2023-05-24T05:07:00;100527.84;;;9.48;83.88
70133;BME280;57495;49.922;7.966;2023-05-24T05:09:02;100526.75;;;9.62;82.51
70133;BME280;57495;49.922;7.966;2023-05-24T05:11:04;100533.81;;;9.41;83.91
70133;BME280;57495;49.922;7.966;2023-05-24T05:13:06;100538.06;;;9.21;84.60
70133;BME280;57495;49.922;7.966;2023-05-24T05:15:08;100534.53;;;9.54;83.52
70133;BME280;57495;49.922;7.966;2023-05-24T05:17:11;100543.38;;;9.55;82.89
70133;BME280;57495;49.922;7.966;2023-05-24T05:19:13;100535.13;;;9.46;82.24
70133;BME280;57495;49.922;7.966;2023-05-24T05:21:15;100535.50;;;9.64;81.67
70133;BME280;57495;49.922;7.966;2023-05-24T05:23:16;100534.47;;;9.77;82.04
70133;BME280;57495;49.922;7.966;2023-05-24T05:25:18;100543.34;;;9.77;81.67
70133;BME280;57495;49.922;7.966;2023-05-24T05:27:19;100540.66;;;9.89;80.61
70133;BME280;57495;49.922;7.966;2023-05-24T05:29:21;100534.53;;;10.09;80.89
70133;BME280;57495;49.922;7.966;2023-05-24T05:31:22;100524.91;;;10.06;80.10
70133;BME280;57495;49.922;7.966;2023-05-24T05:33:25;100528.66;;;10.15;80.06
70133;BME280;57495;49.922;7.966;2023-05-24T05:35:27;100528.19;;;10.10;79.59
70133;BME280;57495;49.922;7.966;2023-05-24T05:37:28;100526.78;;;10.27;79.01
70133;BME280;57495;49.922;7.966;2023-05-24T05:39:30;100535.97;;;10.45;78.35
70133;BME280;57495;49.922;7.966;2023-05-24T05:41:31;100528.53;;;10.49;77.32
70133;BME280;57495;49.922;7.966;2023-05-24T05:43:33;100524.41;;;10.45;77.24
70133;BME280;57495;49.922;7.966;2023-05-24T05:45:34;100533.44;;;10.65;77.01
70133;BME280;57495;49.922;7.966;2023-05-24T05:47:36;100530.41;;;10.58;75.40
70133;BME280;57495;49.922;7.966;2023-05-24T05:49:39;100538.78;;;10.44;77.49
70133;BME280;57495;49.922;7.966;2023-05-24T05:51:40;100541.72;;;10.41;77.72
70133;BME280;57495;49.922;7.966;2023-05-24T05:53:41;100549.00;;;10.60;76.53
70133;BME280;57495;49.922;7.966;2023-05-24T05:55:43;100545.44;;;10.71;75.82
70133;BME280;57495;49.922;7.966;2023-05-24T07:25:32;100556.53;;;14.17;59.97
70133;BME280;57495;49.922;7.966;2023-05-24T07:27:34;100559.69;;;14.30;60.68
70133;BME280;57495;49.922;7.966;2023-05-24T07:29:35;100552.28;;;14.60;60.39
70133;BME280;57495;49.922;7.966;2023-05-24T07:31:37;100558.25;;;14.72;60.01
70133;BME280;57495;49.922;7.966;2023-05-24T07:33:38;100563.31;;;14.39;59.14
70133;BME280;57495;49.922;7.966;2023-05-24T07:35:40;100554.53;;;14.73;60.66
70133;BME280;57495;49.922;7.966;2023-05-24T07:37:41;100550.72;;;14.22;57.09
70133;BME280;57495;49.922;7.966;2023-05-24T07:39:43;100554.31;;;14.66;59.87
70133;BME280;57495;49.922;7.966;2023-05-24T07:41:46;100560.16;;;15.06;58.06
70133;BME280;57495;49.922;7.966;2023-05-24T07:43:47;100556.84;;;15.12;57.58
70133;BME280;57495;49.922;7.966;2023-05-24T07:45:50;100551.91;;;15.07;57.08
70133;BME280;57495;49.922;7.966;2023-05-24T07:47:51;100547.84;;;15.30;56.98
70133;BME280;57495;49.922;7.966;2023-05-24T07:49:52;100549.56;;;15.39;57.52
70133;BME280;57495;49.922;7.966;2023-05-24T07:51:54;100548.06;;;15.44;56.76
70133;BME280;57495;49.922;7.966;2023-05-24T07:53:59;100550.69;;;15.62;56.43
70133;BME280;57495;49.922;7.966;2023-05-24T07:56:00;100546.06;;;15.81;53.88
70133;BME280;57495;49.922;7.966;2023-05-24T07:58:03;100552.88;;;16.10;56.80
70133;BME280;57495;49.922;7.966;2023-05-24T08:00:06;100554.22;;;16.06;54.61
70133;BME280;57495;49.922;7.966;2023-05-24T08:02:13;100564.34;;;16.03;53.70
70133;BME280;57495;49.922;7.966;2023-05-24T08:04:15;100556.91;;;16.06;54.29
70133;BME280;57495;49.922;7.966;2023-05-24T08:06:17;100564.34;;;16.12;54.90
70133;BME280;57495;49.922;7.966;2023-05-24T08:08:18;100561.69;;;16.45;54.82
70133;BME280;57495;49.922;7.966;2023-05-24T08:10:20;100573.19;;;16.55;53.70
70133;BME280;57495;49.922;7.966;2023-05-24T08:12:22;100573.19;;;16.55;52.60
70133;BME280;57495;49.922;7.966;2023-05-24T08:14:26;100573.00;;;16.81;54.34
70133;BME280;57495;49.922;7.966;2023-05-24T08:16:27;100566.75;;;16.72;54.10
70133;BME280;57495;49.922;7.966;2023-05-24T08:18:29;100567.97;;;16.70;53.52
70133;BME280;57495;49.922;7.966;2023-05-24T08:20:30;100576.06;;;16.94;53.86
70133;BME280;57495;49.922;7.966;2023-05-24T08:22:35;100569.47;;;16.56;51.81
70133;BME280;57495;49.922;7.966;2023-05-24T08:24:37;100576.53;;;17.06;51.05
70133;BME280;57495;49.922;7.966;2023-05-24T08:26:39;100573.97;;;17.29;51.84
70133;BME280;57495;49.922;7.966;2023-05-24T08:28:42;100570.56;;;17.44;51.80
70133;BME280;57495;49.922;7.966;2023-05-24T08:30:45;100563.00;;;17.31;49.45
70133;BME280;57495;49.922;7.966;2023-05-24T08:32:46;100558.81;;;17.68;50.57
70133;BME280;57495;49.922;7.966;2023-05-24T08:34:48;100562.78;;;17.80;51.17
70133;BME280;57495;49.922;7.966;2023-05-24T08:36:50;100557.63;;;16.81;49.65
70133;BME280;57495;49.922;7.966;2023-05-24T08:38:51;100554.97;;;17.54;52.44
70133;BME280;57495;49.922;7.966;2023-05-24T08:40:52;100564.06;;;18.01;51.26
70133;BME280;57495;49.922;7.966;2023-05-24T08:42:54;100559.06;;;17.81;49.67
70133;BME280;57495;49.922;7.966;2023-05-24T08:45:03;100551.91;;;17.57;51.40
70133;BME280;57495;49.922;7.966;2023-05-24T08:47:10;100557.28;;;17.09;51.51
70133;BME280;57495;49.922;7.966;2023-05-24T08:49:13;100561.69;;;17.02;52.38
70133;BME280;57495;49.922;7.966;2023-05-24T08:51:15;100558.16;;;16.60;50.77
70133;BME280;57495;49.922;7.966;2023-05-24T08:53:17;100561.69;;;16.36;51.70
70133;BME280;57495;49.922;7.966;2023-05-24T08:55:21;100563.34;;;16.21;52.62
70133;BME280;57495;49.922;7.966;2023-05-24T08:57:22;100561.59;;;15.95;50.32
70133;BME280;57495;49.922;7.966;2023-05-24T08:59:24;100556.78;;;15.73;51.33
70133;BME280;57495;49.922;7.966;2023-05-24T09:01:27;100567.00;;;15.26;51.59
70133;BME280;57495;49.922;7.966;2023-05-24T09:03:31;100563.41;;;15.44;51.86
70133;BME280;57495;49.922;7.966;2023-05-24T09:05:35;100566.78;;;15.46;49.08
70133;BME280;57495;49.922;7.966;2023-05-24T09:07:37;100565.16;;;15.01;46.35
70133;BME280;57495;49.922;7.966;2023-05-24T09:09:41;100566.19;;;15.00;47.21
70133;BME280;57495;49.922;7.966;2023-05-24T09:11:46;100567.31;;;14.53;50.09
70133;BME280;57495;49.922;7.966;2023-05-24T09:13:50;100572.09;;;14.59;50.65
70133;BME280;57495;49.922;7.966;2023-05-24T09:15:51;100568.69;;;14.39;51.48
70133;BME280;57495;49.922;7.966;2023-05-24T09:17:53;100568.56;;;14.59;51.01
70133;BME280;57495;49.922;7.966;2023-05-24T09:19:57;100558.38;;;14.53;51.62
70133;BME280;57495;49.922;7.966;2023-05-24T09:21:59;100566.41;;;14.62;51.31
70133;BME280;57495;49.922;7.966;2023-05-24T09:24:01;100565.91;;;14.85;51.44
70133;BME280;57495;49.922;7.966;2023-05-24T09:26:06;100570.47;;;14.84;51.66
70133;BME280;57495;49.922;7.966;2023-05-24T09:28:08;100571.44;;;14.83;51.88
70133;BME280;57495;49.922;7.966;2023-05-24T09:30:10;100567.16;;;14.73;52.43
70133;BME280;57495;49.922;7.966;2023-05-24T09:32:12;100570.75;;;14.81;52.93
70133;BME280;57495;49.922;7.966;2023-05-24T09:34:14;100573.34;;;15.17;50.13
70133;BME280;57495;49.922;7.966;2023-05-24T09:36:17;100570.75;;;15.68;50.30
70133;BME280;57495;49.922;7.966;2023-05-24T09:38:18;100573.63;;;16.17;50.04
70133;BME280;57495;49.922;7.966;2023-05-24T09:40:20;100568.16;;;16.85;49.70
70133;BME280;57495;49.922;7.966;2023-05-24T09:42:23;100568.56;;;17.21;48.99
70133;BME280;57495;49.922;7.966;2023-05-24T09:44:25;100567.22;;;17.73;47.83
70133;BME280;57495;49.922;7.966;2023-05-24T09:46:27;100566.00;;;17.36;47.46
70133;BME280;57495;49.922;7.966;2023-05-24T09:48:29;100564.53;;;17.17;49.07
70133;BME280;57495;49.922;7.966;2023-05-24T09:50:31;100565.78;;;16.90;48.57
70133;BME280;57495;49.922;7.966;2023-05-24T09:52:37;100564.88;;;17.22;49.12
70133;BME280;57495;49.922;7.966;2023-05-24T09:54:38;100558.47;;;17.15;49.94
70133;BME280;57495;49.922;7.966;2023-05-24T09:56:40;100559.00;;;17.02;47.94
70133;BME280;57495;49.922;7.966;2023-05-24T09:58:43;100557.66;;;16.98;46.90
70133;BME280;57495;49.922;7.966;2023-05-24T10:00:45;100557.97;;;16.95;49.57
70133;BME280;57495;49.922;7.966;2023-05-24T10:02:59;100552.34;;;17.21;49.46
70133;BME280;57495;49.922;7.966;2023-05-24T10:05:00;100551.91;;;17.01;47.58
70133;BME280;57495;49.922;7.966;2023-05-24T10:07:04;100546.94;;;17.77;47.99
70133;BME280;57495;49.922;7.966;2023-05-24T10:09:07;100533.53;;;18.15;48.70
70133;BME280;57495;49.922;7.966;2023-05-24T10:11:10;100530.75;;;18.46;50.45
70133;BME280;57495;49.922;7.966;2023-05-24T10:13:11;100526.66;;;18.50;46.72
70133;BME280;57495;49.922;7.966;2023-05-24T10:15:14;100530.34;;;18.81;46.43
70133;BME280;57495;49.922;7.966;2023-05-24T10:17:16;100529.78;;;19.00;47.38
70133;BME280;57495;49.922;7.966;2023-05-24T10:19:17;100533.72;;;19.27;45.85
70133;BME280;57495;49.922;7.966;2023-05-24T10:21:20;100532.63;;;19.22;42.58
70133;BME280;57495;49.922;7.966;2023-05-24T10:23:23;100539.25;;;19.34;45.05
70133;BME280;57495;49.922;7.966;2023-05-24T10:25:28;100536.16;;;19.52;43.35
70133;BME280;57495;49.922;7.966;2023-05-24T10:27:30;100539.97;;;19.58;42.76
70133;BME280;57495;49.922;7.966;2023-05-24T10:29:40;100546.38;;;20.01;45.22
70133;BME280;57495;49.922;7.966;2023-05-24T10:31:45;100541.00;;;20.08;43.88
70133;BME280;57495;49.922;7.966;2023-05-24T10:33:47;100538.41;;;20.36;42.43
70133;BME280;57495;49.922;7.966;2023-05-24T10:35:51;100530.56;;;20.48;41.11
70133;BME280;57495;49.922;7.966;2023-05-24T10:37:53;100530.19;;;20.30;42.36
70133;BME280;57495;49.922;7.966;2023-05-24T10:39:54;100520.53;;;19.39;42.43
70133;BME280;57495;49.922;7.966;2023-05-24T10:42:01;100531.84;;;18.60;42.53
70133;BME280;57495;49.922;7.966;2023-05-24T10:44:09;100526.34;;;18.68;43.13
70133;BME280;57495;49.922;7.966;2023-05-24T10:46:13;100528.44;;;18.58;42.66
70133;BME280;57495;49.922;7.966;2023-05-24T10:48:31;100521.66;;;19.30;42.61
70133;BME280;57495;49.922;7.966;2023-05-24T10:50:35;100517.31;;;19.80;42.91
70133;BME280;57495;49.922;7.966;2023-05-24T10:52:36;100515.41;;;19.96;43.33
70133;BME280;57495;49.922;7.966;2023-05-24T10:54:38;100508.75;;;19.32;43.35
70133;BME280;57495;49.922;7.966;2023-05-24T10:56:42;100506.94;;;19.54;46.60
70133;BME280;57495;49.922;7.966;2023-05-24T10:58:58;100511.38;;;18.81;43.04
70133;BME280;57495;49.922;7.966;2023-05-24T11:01:00;100506.59;;;19.42;44.81
70133;BME280;57495;49.922;7.966;2023-05-24T11:03:02;100508.47;;;19.93;43.39
70133;BME280;57495;49.922;7.966;2023-05-24T11:05:07;100503.66;;;20.32;43.81
70133;BME280;57495;49.922;7.966;2023-05-24T11:07:10;100498.19;;;19.22;42.99
70133;BME280;57495;49.922;7.966;2023-05-24T11:09:14;100502.16;;;19.71;41.88
70133;BME280;57495;49.922;7.966;2023-05-24T11:11:16;100499.25;;;20.09;42.18
70133;BME280;57495;49.922;7.966;2023-05-24T11:13:19;100506.63;;;20.37;45.30
70133;BME280;57495;49.922;7.966;2023-05-24T11:15:23;100504.09;;;20.57;42.31
70133;BME280;57495;49.922;7.966;2023-05-24T11:17:25;100509.72;;;20.55;42.30
70133;BME280;57495;49.922;7.966;2023-05-24T11:19:31;100504.84;;;20.65;40.25
70133;BME280;57495;49.922;7.966;2023-05-24T11:21:33;100501.66;;;20.90;38.51
70133;BME280;57495;49.922;7.966;2023-05-24T11:23:34;100505.25;;;21.32;42.39
70133;BME280;57495;49.922;7.966;2023-05-24T11:25:37;100504.59;;;21.30;41.62
70133;BME280;57495;49.922;7.966;2023-05-24T11:27:41;100502.75;;;20.24;39.40
70133;BME280;57495;49.922;7.966;2023-05-24T11:29:45;100500.03;;;20.46;39.93
70133;BME280;57495;49.922;7.966;2023-05-24T11:31:49;100499.16;;;21.72;43.14
70133;BME280;57495;49.922;7.966;2023-05-24T11:33:51;100498.00;;;22.08;43.71
70133;BME280;57495;49.922;7.966;2023-05-24T11:35:54;100505.41;;;21.59;37.99
70133;BME280;57495;49.922;7.966;2023-05-24T11:37:55;100499.72;;;21.54;41.68
70133;BME280;57495;49.922;7.966;2023-05-24T11:39:57;100494.44;;;20.76;40.29
70133;BME280;57495;49.922;7.966;2023-05-24T11:42:00;100492.59;;;20.33;40.34
70133;BME280;57495;49.922;7.966;2023-05-24T11:44:02;100492.72;;;20.03;41.13
70133;BME280;57495;49.922;7.966;2023-05-24T11:46:04;100488.84;;;19.91;42.74
70133;BME280;57495;49.922;7.966;2023-05-24T11:48:07;100491.47;;;19.33;41.73
70133;BME280;57495;49.922;7.966;2023-05-24T11:50:11;100487.06;;;19.32;42.51
70133;BME280;57495;49.922;7.966;2023-05-24T11:52:15;100484.75;;;19.14;41.78
70133;BME280;57495;49.922;7.966;2023-05-24T11:54:17;100487.06;;;19.02;41.94
70133;BME280;57495;49.922;7.966;2023-05-24T11:56:19;100482.41;;;18.96;41.78
70133;BME280;57495;49.922;7.966;2023-05-24T11:58:22;100483.78;;;18.54;43.14
70133;BME280;57495;49.922;7.966;2023-05-24T12:00:24;100477.91;;;19.33;43.65
70133;BME280;57495;49.922;7.966;2023-05-24T12:02:28;100484.28;;;19.10;45.63
70133;BME280;57495;49.922;7.966;2023-05-24T12:04:32;100476.56;;;18.69;42.53
70133;BME280;57495;49.922;7.966;2023-05-24T12:06:35;100478.69;;;18.59;44.64
70133;BME280;57495;49.922;7.966;2023-05-24T12:08:37;100476.06;;;18.51;43.94
70133;BME280;57495;49.922;7.966;2023-05-24T12:10:40;100470.00;;;18.64;45.13
70133;BME280;57495;49.922;7.966;2023-05-24T12:12:42;100478.16;;;18.41;45.55